createdAt,value
2022-09-12T00:00:35.972Z,15.77
2022-09-12T00:01:43.656Z,15.75
2022-09-12T00:02:36.333Z,15.74
2022-09-12T00:03:36.305Z,15.73
2022-09-12T00:04:35.995Z,15.71
2022-09-12T00:05:35.887Z,15.70
2022-09-12T00:06:35.876Z,15.68
2022-09-12T00:07:42.271Z,15.67
2022-09-12T00:08:35.803Z,15.66
2022-09-12T00:09:35.847Z,15.64
2022-09-12T00:10:35.943Z,15.63
2022-09-12T00:11:36.735Z,15.61
2022-09-12T00:12:42.080Z,15.60
2022-09-12T00:13:41.312Z,15.59
2022-09-12T00:14:37.377Z,15.57
2022-09-12T00:15:36.830Z,15.56
2022-09-12T00:16:36.345Z,15.55
2022-09-12T00:17:35.727Z,15.54
2022-09-12T00:18:42.032Z,15.53
2022-09-12T00:19:35.748Z,15.52
2022-09-12T00:20:36.626Z,15.52
2022-09-12T00:21:35.978Z,15.51
2022-09-12T00:22:35.992Z,15.49
2022-09-12T00:23:42.088Z,15.48
2022-09-12T00:24:35.748Z,15.47
2022-09-12T00:25:36.928Z,15.46
2022-09-12T00:26:35.651Z,15.45
2022-09-12T00:27:36.217Z,15.43
2022-09-12T00:28:35.834Z,15.42
2022-09-12T00:29:41.982Z,15.40
2022-09-12T00:30:35.613Z,15.39
2022-09-12T00:31:35.641Z,15.37
2022-09-12T00:32:36.194Z,15.36
2022-09-12T00:33:36.486Z,15.34
2022-09-12T00:34:42.233Z,15.33
2022-09-12T00:35:35.795Z,15.32
2022-09-12T00:36:35.842Z,15.30
2022-09-12T00:37:37.941Z,15.29
2022-09-12T00:38:35.637Z,15.28
2022-09-12T00:39:35.497Z,15.27
2022-09-12T00:40:42.304Z,15.25
2022-09-12T00:41:35.961Z,15.24
2022-09-12T00:42:36.778Z,15.23
2022-09-12T00:43:35.764Z,15.22
2022-09-12T00:44:38.494Z,15.20
2022-09-12T00:45:35.705Z,15.19
2022-09-12T00:46:42.811Z,15.17
2022-09-12T00:47:39.146Z,15.16
2022-09-12T00:48:35.507Z,15.15
2022-09-12T00:49:41.739Z,15.14
2022-09-12T00:50:36.367Z,15.13
2022-09-12T00:51:41.612Z,15.12
2022-09-12T00:52:35.331Z,15.10
2022-09-12T00:53:35.361Z,15.09
2022-09-12T00:54:36.667Z,15.07
2022-09-12T00:55:35.452Z,15.06
2022-09-12T00:56:36.510Z,15.04
2022-09-12T00:57:42.048Z,15.03
2022-09-12T00:58:35.377Z,15.01
2022-09-12T00:59:37.008Z,15.00
2022-09-12T01:00:35.261Z,14.98
2022-09-12T01:01:36.433Z,14.97
2022-09-12T01:02:35.141Z,14.96
2022-09-12T01:03:41.904Z,14.95
2022-09-12T01:04:36.714Z,14.94
2022-09-12T01:05:36.950Z,14.93
2022-09-12T01:06:35.363Z,14.92
2022-09-12T01:07:40.066Z,14.91
2022-09-12T01:08:42.775Z,14.90
2022-09-12T01:09:36.348Z,14.90
2022-09-12T01:10:35.235Z,14.89
2022-09-12T01:11:35.421Z,14.88
2022-09-12T01:12:35.214Z,14.87
2022-09-12T01:13:46.369Z,14.86
2022-09-12T01:14:36.160Z,14.85
2022-09-12T01:15:35.426Z,14.84
2022-09-12T01:16:35.396Z,14.83
2022-09-12T01:17:35.405Z,14.82
2022-09-12T01:18:41.571Z,14.81
2022-09-12T01:19:35.028Z,14.80
2022-09-12T01:20:35.354Z,14.78
2022-09-12T01:21:35.192Z,14.77
2022-09-12T01:22:35.253Z,14.76
2022-09-12T01:23:34.986Z,14.75
2022-09-12T01:24:42.290Z,14.74
2022-09-12T01:25:35.096Z,14.73
2022-09-12T01:26:36.038Z,14.72
2022-09-12T01:27:35.817Z,14.71
2022-09-12T01:28:37.435Z,14.69
2022-09-12T01:29:41.955Z,14.68
2022-09-12T01:30:36.076Z,14.67
2022-09-12T01:31:34.751Z,14.66
2022-09-12T01:32:35.773Z,14.65
2022-09-12T01:33:35.775Z,14.64
2022-09-12T01:34:34.908Z,14.63
2022-09-12T01:35:42.264Z,14.63
2022-09-12T01:36:35.329Z,14.63
2022-09-12T01:37:35.933Z,14.63
2022-09-12T01:38:35.364Z,14.63
2022-09-12T01:39:34.826Z,14.63
2022-09-12T01:40:34.830Z,14.64
2022-09-12T01:41:41.156Z,14.64
2022-09-12T01:42:34.641Z,14.64
2022-09-12T01:43:34.687Z,14.64
2022-09-12T01:44:35.354Z,14.64
2022-09-12T01:45:35.946Z,14.63
2022-09-12T01:46:35.758Z,14.63
2022-09-12T01:47:41.089Z,14.62
2022-09-12T01:48:35.750Z,14.62
2022-09-12T01:49:36.400Z,14.61
2022-09-12T01:50:34.745Z,14.60
2022-09-12T01:51:35.057Z,14.59
2022-09-12T01:52:34.704Z,14.59
2022-09-12T01:53:40.887Z,14.58
2022-09-12T01:54:36.601Z,14.56
2022-09-12T01:55:36.254Z,14.55
2022-09-12T01:56:34.542Z,14.53
2022-09-12T01:57:34.623Z,14.52
2022-09-12T01:58:34.864Z,14.51
2022-09-12T01:59:41.718Z,14.51
2022-09-12T02:00:34.971Z,14.50
2022-09-12T02:01:35.627Z,14.50
2022-09-12T02:02:36.177Z,14.50
2022-09-12T02:03:34.480Z,14.50
2022-09-12T02:04:40.771Z,14.50
2022-09-12T02:05:35.247Z,14.49
2022-09-12T02:06:35.260Z,14.48
2022-09-12T02:07:34.284Z,14.48
2022-09-12T02:08:36.345Z,14.47
2022-09-12T02:09:34.303Z,14.46
2022-09-12T02:10:40.902Z,14.46
2022-09-12T02:11:34.357Z,14.45
2022-09-12T02:12:34.715Z,14.45
2022-09-12T02:13:36.633Z,14.45
2022-09-12T02:14:34.432Z,14.44
2022-09-12T02:15:35.435Z,14.43
2022-09-12T02:16:40.651Z,14.42
2022-09-12T02:17:34.277Z,14.41
2022-09-12T02:18:34.306Z,14.40
2022-09-12T02:19:38.219Z,14.39
2022-09-12T02:20:49.619Z,14.38
2022-09-12T02:21:35.986Z,14.37
2022-09-12T02:22:40.657Z,14.36
2022-09-12T02:23:35.106Z,14.35
2022-09-12T02:24:35.234Z,14.33
2022-09-12T02:25:34.316Z,14.33
2022-09-12T02:26:35.038Z,14.32
2022-09-12T02:27:40.432Z,14.31
2022-09-12T02:28:34.615Z,14.30
2022-09-12T02:29:35.491Z,14.29
2022-09-12T02:30:34.545Z,14.29
2022-09-12T02:31:34.477Z,14.28
2022-09-12T02:32:40.672Z,14.27
2022-09-12T02:33:34.692Z,14.27
2022-09-12T02:34:35.270Z,14.27
2022-09-12T02:35:34.743Z,14.26
2022-09-12T02:36:34.430Z,14.26
2022-09-12T02:37:35.157Z,14.26
2022-09-12T02:38:41.640Z,14.26
2022-09-12T02:39:35.077Z,14.25
2022-09-12T02:40:35.086Z,14.25
2022-09-12T02:41:33.871Z,14.24
2022-09-12T02:42:34.580Z,14.24
2022-09-12T02:43:41.043Z,14.24
2022-09-12T02:44:34.652Z,14.23
2022-09-12T02:45:34.970Z,14.23
2022-09-12T02:46:34.781Z,14.23
2022-09-12T02:47:34.220Z,14.23
2022-09-12T02:48:41.551Z,14.23
2022-09-12T02:49:34.160Z,14.23
2022-09-12T02:50:36.145Z,14.23
2022-09-12T02:51:35.130Z,14.22
2022-09-12T02:52:33.830Z,14.22
2022-09-12T02:53:37.830Z,14.22
2022-09-12T02:54:40.459Z,14.23
2022-09-12T02:55:34.947Z,14.23
2022-09-12T02:56:33.815Z,14.24
2022-09-12T02:57:35.011Z,14.25
2022-09-12T02:58:54.727Z,14.26
2022-09-12T02:59:33.891Z,14.26
2022-09-12T03:00:40.320Z,14.27
2022-09-12T03:01:33.823Z,14.28
2022-09-12T03:02:34.174Z,14.28
2022-09-12T03:03:35.135Z,14.28
2022-09-12T03:04:33.717Z,14.29
2022-09-12T03:05:33.901Z,14.29
2022-09-12T03:06:40.255Z,14.29
2022-09-12T03:07:34.757Z,14.29
2022-09-12T03:08:39.976Z,14.29
2022-09-12T03:09:34.592Z,14.29
2022-09-12T03:10:34.583Z,14.29
2022-09-12T03:11:34.372Z,14.29
2022-09-12T03:12:41.623Z,14.28
2022-09-12T03:13:34.692Z,14.27
2022-09-12T03:14:33.704Z,14.27
2022-09-12T03:15:34.622Z,14.26
2022-09-12T03:16:33.532Z,14.25
2022-09-12T03:17:33.591Z,14.24
2022-09-12T03:18:41.207Z,14.23
2022-09-12T03:19:35.068Z,14.23
2022-09-12T03:20:33.739Z,14.22
2022-09-12T03:21:34.642Z,14.22
2022-09-12T03:22:33.751Z,14.22
2022-09-12T03:23:39.902Z,14.22
2022-09-12T03:24:33.506Z,14.21
2022-09-12T03:25:34.472Z,14.21
2022-09-12T03:26:33.423Z,14.20
2022-09-12T03:27:33.430Z,14.20
2022-09-12T03:28:40.040Z,14.19
2022-09-12T03:29:33.957Z,14.18
2022-09-12T03:30:34.777Z,14.17
2022-09-12T03:31:33.440Z,14.16
2022-09-12T03:32:33.337Z,14.14
2022-09-12T03:33:41.177Z,14.13
2022-09-12T03:34:33.437Z,14.11
2022-09-12T03:35:35.630Z,14.10
2022-09-12T03:36:33.339Z,14.08
2022-09-12T03:37:33.292Z,14.06
2022-09-12T03:38:33.312Z,14.05
2022-09-12T03:39:39.825Z,14.03
2022-09-12T03:40:34.282Z,14.02
2022-09-12T03:41:33.630Z,14.01
2022-09-12T03:42:33.233Z,14.01
2022-09-12T03:43:33.484Z,14.00
2022-09-12T03:44:33.116Z,14.00
2022-09-12T03:45:39.491Z,14.00
2022-09-12T03:46:33.200Z,14.00
2022-09-12T03:47:34.455Z,14.01
2022-09-12T03:48:33.041Z,14.01
2022-09-12T03:49:33.041Z,14.01
2022-09-12T03:50:33.644Z,14.01
2022-09-12T03:51:39.893Z,14.01
2022-09-12T03:52:33.276Z,14.01
2022-09-12T03:53:35.411Z,14.00
2022-09-12T03:54:33.256Z,14.00
2022-09-12T03:55:33.109Z,13.99
2022-09-12T03:56:34.187Z,13.98
2022-09-12T03:57:40.601Z,13.98
2022-09-12T03:58:34.100Z,13.97
2022-09-12T03:59:33.405Z,13.95
2022-09-12T04:00:35.737Z,13.94
2022-09-12T04:01:32.889Z,13.93
2022-09-12T04:02:41.496Z,13.92
2022-09-12T04:03:32.898Z,13.92
2022-09-12T04:04:32.977Z,13.91
2022-09-12T04:05:32.814Z,13.91
2022-09-12T04:06:39.081Z,13.91
2022-09-12T04:07:33.160Z,13.91
2022-09-12T04:08:39.116Z,13.92
2022-09-12T04:09:33.471Z,13.92
2022-09-12T04:10:33.241Z,13.93
2022-09-12T04:11:32.866Z,13.93
2022-09-12T04:12:32.838Z,13.93
2022-09-12T04:13:32.758Z,13.93
2022-09-12T04:14:40.398Z,13.92
2022-09-12T04:15:32.959Z,13.92
2022-09-12T04:16:33.806Z,13.91
2022-09-12T04:17:32.648Z,13.91
2022-09-12T04:18:33.034Z,13.90
2022-09-12T04:19:32.930Z,13.89
2022-09-12T04:20:39.029Z,13.89
2022-09-12T04:21:32.770Z,13.88
2022-09-12T04:22:32.559Z,13.88
2022-09-12T04:23:33.342Z,13.87
2022-09-12T04:24:32.534Z,13.86
2022-09-12T04:25:39.329Z,13.86
2022-09-12T04:26:33.835Z,13.85
2022-09-12T04:27:32.593Z,13.85
2022-09-12T04:28:32.598Z,13.85
2022-09-12T04:29:32.416Z,13.84
2022-09-12T04:30:32.488Z,13.84
2022-09-12T04:31:38.780Z,13.85
2022-09-12T04:32:32.495Z,13.85
2022-09-12T04:33:32.573Z,13.84
2022-09-12T04:34:32.814Z,13.84
2022-09-12T04:35:32.399Z,13.83
2022-09-12T04:36:38.709Z,13.83
2022-09-12T04:37:38.802Z,13.82
2022-09-12T04:38:32.516Z,13.82
2022-09-12T04:39:32.322Z,13.81
2022-09-12T04:40:33.296Z,13.81
2022-09-12T04:41:32.367Z,13.82
2022-09-12T04:42:38.801Z,13.82
2022-09-12T04:43:32.416Z,13.82
2022-09-12T04:44:32.494Z,13.82
2022-09-12T04:45:32.439Z,13.83
2022-09-12T04:46:32.261Z,13.83
2022-09-12T04:47:39.876Z,13.84
2022-09-12T04:48:32.279Z,13.84
2022-09-12T04:49:32.524Z,13.84
2022-09-12T04:50:32.324Z,13.85
2022-09-12T04:51:32.475Z,13.85
2022-09-12T04:52:32.232Z,13.85
2022-09-12T04:53:38.575Z,13.85
2022-09-12T04:54:32.435Z,13.85
2022-09-12T04:55:32.160Z,13.85
2022-09-12T04:56:32.205Z,13.86
2022-09-12T04:57:32.364Z,13.86
2022-09-12T04:58:32.106Z,13.86
2022-09-12T04:59:39.407Z,13.87
2022-09-12T05:00:32.439Z,13.87
2022-09-12T05:01:33.070Z,13.88
2022-09-12T05:02:32.795Z,13.89
2022-09-12T05:03:32.623Z,13.91
2022-09-12T05:04:39.003Z,13.92
2022-09-12T05:05:32.175Z,13.93
2022-09-12T05:06:31.965Z,13.94
2022-09-12T05:07:32.057Z,13.95
2022-09-12T05:08:32.050Z,13.97
2022-09-12T05:09:39.125Z,13.98
2022-09-12T05:10:31.921Z,14.00
2022-09-12T05:11:52.999Z,14.01
2022-09-12T05:12:32.867Z,14.03
2022-09-12T05:13:32.939Z,14.04
2022-09-12T05:14:35.897Z,14.04
2022-09-12T05:15:38.282Z,14.05
2022-09-12T05:16:32.881Z,14.06
2022-09-12T05:17:32.890Z,14.07
2022-09-12T05:18:32.473Z,14.07
2022-09-12T05:19:31.801Z,14.08
2022-09-12T05:20:32.008Z,14.09
2022-09-12T05:21:38.486Z,14.11
2022-09-12T05:22:31.958Z,14.12
2022-09-12T05:23:38.093Z,14.13
2022-09-12T05:24:32.063Z,14.14
2022-09-12T05:25:31.906Z,14.15
2022-09-12T05:26:32.109Z,14.17
2022-09-12T05:27:39.760Z,14.18
2022-09-12T05:28:31.759Z,14.19
2022-09-12T05:29:31.784Z,14.21
2022-09-12T05:30:33.111Z,14.23
2022-09-12T05:31:32.783Z,14.24
2022-09-12T05:32:33.372Z,14.26
2022-09-12T05:34:01.880Z,15.43
2022-09-12T05:35:03.044Z,14.99
2022-09-12T05:36:01.954Z,14.71
2022-09-12T05:37:02.076Z,14.56
2022-09-12T05:38:02.134Z,14.48
2022-09-12T05:39:10.122Z,14.44
2022-09-12T05:40:02.155Z,14.42
2022-09-12T05:41:02.817Z,14.42
2022-09-12T05:42:06.451Z,14.43
2022-09-12T05:43:05.347Z,14.44
2022-09-12T05:44:01.992Z,14.45
2022-09-12T05:45:08.552Z,14.46
2022-09-12T05:46:04.100Z,14.48
2022-09-12T05:47:03.059Z,14.49
2022-09-12T05:48:02.817Z,14.51
2022-09-12T05:49:02.022Z,14.53
2022-09-12T05:50:02.939Z,14.55
2022-09-12T05:51:09.600Z,14.57
2022-09-12T05:52:01.939Z,14.59
2022-09-12T05:53:01.845Z,14.61
2022-09-12T05:54:01.746Z,14.63
2022-09-12T05:55:01.815Z,14.65
2022-09-12T05:56:02.075Z,14.67
2022-09-12T05:57:08.822Z,14.69
2022-09-12T05:58:02.811Z,14.70
2022-09-12T05:59:02.760Z,14.72
2022-09-12T06:00:02.637Z,14.74
2022-09-12T06:01:01.742Z,14.76
2022-09-12T06:02:08.826Z,14.78
2022-09-12T06:03:01.597Z,14.80
2022-09-12T06:04:01.852Z,14.83
2022-09-12T06:05:02.679Z,14.85
2022-09-12T06:06:03.058Z,14.87
2022-09-12T06:07:09.327Z,14.89
2022-09-12T06:08:01.944Z,14.92
2022-09-12T06:09:01.773Z,14.94
2022-09-12T06:10:01.903Z,14.96
2022-09-12T06:11:06.175Z,14.99
2022-09-12T06:12:01.617Z,15.01
2022-09-12T06:13:11.951Z,15.03
2022-09-12T06:14:01.718Z,15.05
2022-09-12T06:15:01.556Z,15.08
2022-09-12T06:16:01.525Z,15.10
2022-09-12T06:17:02.009Z,15.13
2022-09-12T06:18:08.278Z,15.15
2022-09-12T06:19:02.542Z,15.18
2022-09-12T06:20:01.502Z,15.20
2022-09-12T06:21:01.765Z,15.22
2022-09-12T06:22:01.706Z,15.25
2022-09-12T06:23:07.692Z,15.27
2022-09-12T06:24:01.427Z,15.29
2022-09-12T06:25:03.212Z,15.31
2022-09-12T06:26:02.096Z,15.33
2022-09-12T06:27:02.599Z,15.35
2022-09-12T06:28:07.925Z,15.37
2022-09-12T06:29:01.656Z,15.39
2022-09-12T06:30:01.277Z,15.41
2022-09-12T06:31:01.373Z,15.43
2022-09-12T06:32:01.965Z,15.45
2022-09-12T06:33:12.222Z,15.47
2022-09-12T06:34:01.273Z,15.49
2022-09-12T06:35:01.126Z,15.51
2022-09-12T06:36:01.355Z,15.53
2022-09-12T06:37:01.364Z,15.55
2022-09-12T06:38:01.134Z,15.57
2022-09-12T06:39:07.427Z,15.60
2022-09-12T06:40:01.993Z,15.62
2022-09-12T06:41:01.188Z,15.64
2022-09-12T06:42:01.696Z,15.66
2022-09-12T06:43:00.982Z,15.68
2022-09-12T06:44:07.447Z,15.70
2022-09-12T06:45:01.050Z,15.72
2022-09-12T06:46:00.954Z,15.74
2022-09-12T06:47:01.646Z,15.76
2022-09-12T06:48:01.130Z,15.78
2022-09-12T06:49:07.356Z,15.81
2022-09-12T06:50:02.769Z,15.83
2022-09-12T06:51:00.952Z,15.86
2022-09-12T06:52:01.870Z,15.88
2022-09-12T06:53:01.087Z,15.91
2022-09-12T06:54:07.705Z,15.94
2022-09-12T06:55:00.916Z,15.96
2022-09-12T06:56:01.006Z,15.98
2022-09-12T06:57:00.856Z,16.01
2022-09-12T06:58:00.759Z,16.03
2022-09-12T06:59:07.312Z,16.05
2022-09-12T07:00:00.841Z,16.06
2022-09-12T07:01:01.017Z,16.08
2022-09-12T07:02:01.964Z,16.10
2022-09-12T07:03:01.217Z,16.11
2022-09-12T07:04:07.060Z,16.13
2022-09-12T07:05:00.817Z,16.15
2022-09-12T07:06:01.735Z,16.17
2022-09-12T07:07:01.751Z,16.19
2022-09-12T07:08:00.703Z,16.21
2022-09-12T07:09:06.920Z,16.23
2022-09-12T07:10:00.660Z,16.25
2022-09-12T07:11:00.722Z,16.28
2022-09-12T07:12:00.728Z,16.29
2022-09-12T07:13:01.081Z,16.31
2022-09-12T07:14:02.034Z,16.33
2022-09-12T07:15:08.117Z,16.35
2022-09-12T07:16:00.673Z,16.37
2022-09-12T07:17:00.698Z,16.39
2022-09-12T07:18:00.552Z,16.42
2022-09-12T07:19:00.564Z,16.44
2022-09-12T07:20:00.814Z,16.47
2022-09-12T07:21:07.527Z,16.49
2022-09-12T07:22:00.528Z,16.51
2022-09-12T07:23:00.402Z,16.53
2022-09-12T07:24:00.815Z,16.56
2022-09-12T07:25:00.497Z,16.58
2022-09-12T07:26:00.436Z,16.61
2022-09-12T07:27:06.764Z,16.63
2022-09-12T07:28:00.391Z,16.65
2022-09-12T07:29:19.085Z,16.68
2022-09-12T07:30:07.711Z,16.70
2022-09-12T07:31:00.523Z,16.73
2022-09-12T07:32:00.545Z,16.75
2022-09-12T07:33:06.966Z,16.76
2022-09-12T07:34:00.371Z,16.78
2022-09-12T07:35:00.285Z,16.79
2022-09-12T07:36:00.721Z,16.81
2022-09-12T07:37:00.303Z,16.82
2022-09-12T07:38:09.652Z,16.84
2022-09-12T07:39:06.683Z,16.86
2022-09-12T07:40:00.402Z,16.88
2022-09-12T07:41:00.433Z,16.90
2022-09-12T07:42:00.172Z,16.92
2022-09-12T07:43:00.175Z,16.94
2022-09-12T07:44:07.858Z,16.97
2022-09-12T07:45:00.235Z,16.99
2022-09-12T07:46:00.343Z,17.01
2022-09-12T07:47:00.161Z,17.03
2022-09-12T07:48:00.162Z,17.05
2022-09-12T07:49:08.385Z,17.07
2022-09-12T07:50:00.225Z,17.10
2022-09-12T07:51:00.135Z,17.12
2022-09-12T07:52:00.194Z,17.14
2022-09-12T07:53:00.459Z,17.17
2022-09-12T07:54:01.216Z,17.20
2022-09-12T07:55:06.865Z,17.23
2022-09-12T07:56:00.319Z,17.26
2022-09-12T07:57:00.323Z,17.28
2022-09-12T07:58:00.081Z,17.32
2022-09-12T07:59:02.277Z,17.35
2022-09-12T08:00:00.200Z,17.38
2022-09-12T08:01:06.792Z,17.40
2022-09-12T08:02:00.000Z,17.42
2022-09-12T08:02:59.972Z,17.44
2022-09-12T08:04:00.010Z,17.46
2022-09-12T08:04:59.903Z,17.47
2022-09-12T08:06:09.381Z,17.48
2022-09-12T08:06:59.925Z,17.49
2022-09-12T08:08:00.338Z,17.49
2022-09-12T08:09:00.139Z,17.50
2022-09-12T08:10:00.906Z,17.52
2022-09-12T08:11:06.773Z,17.53
2022-09-12T08:11:59.929Z,17.54
2022-09-12T08:12:59.814Z,17.55
2022-09-12T08:13:59.849Z,17.55
2022-09-12T08:14:59.901Z,17.56
2022-09-12T08:16:06.209Z,17.59
2022-09-12T08:16:59.896Z,17.62
2022-09-12T08:18:00.161Z,17.65
2022-09-12T08:18:59.906Z,17.68
2022-09-12T08:19:59.776Z,17.71
2022-09-12T08:21:06.114Z,17.74
2022-09-12T08:21:59.800Z,17.78
2022-09-12T08:22:59.846Z,17.83
2022-09-12T08:24:00.123Z,17.88
2022-09-12T08:25:00.056Z,17.94
2022-09-12T08:26:06.792Z,18.00
2022-09-12T08:26:59.874Z,18.06
2022-09-12T08:27:59.800Z,18.11
2022-09-12T08:28:59.644Z,18.17
2022-09-12T08:29:59.609Z,18.22
2022-09-12T08:31:06.063Z,18.26
2022-09-12T08:32:03.509Z,18.27
2022-09-12T08:32:59.783Z,18.27
2022-09-12T08:33:59.897Z,18.27
2022-09-12T08:34:59.999Z,18.27
2022-09-12T08:35:59.550Z,18.27
2022-09-12T08:37:05.850Z,18.25
2022-09-12T08:37:59.468Z,18.23
2022-09-12T08:39:00.406Z,18.20
2022-09-12T08:39:59.537Z,18.19
2022-09-12T08:40:59.555Z,18.19
2022-09-12T08:42:05.804Z,18.19
2022-09-12T08:42:59.427Z,18.19
2022-09-12T08:43:59.428Z,18.20
2022-09-12T08:44:59.380Z,18.21
2022-09-12T08:45:59.667Z,18.23
2022-09-12T08:47:05.702Z,18.24
2022-09-12T08:47:59.736Z,18.27
2022-09-12T08:48:59.703Z,18.31
2022-09-12T08:49:59.811Z,18.34
2022-09-12T08:50:59.876Z,18.38
2022-09-12T08:52:06.044Z,18.42
2022-09-12T08:52:59.581Z,18.47
2022-09-12T08:53:59.377Z,18.53
2022-09-12T08:54:59.383Z,18.61
2022-09-12T08:55:59.415Z,18.71
2022-09-12T08:56:59.671Z,18.80
2022-09-12T08:58:05.878Z,18.88
2022-09-12T08:58:59.583Z,18.93
2022-09-12T08:59:59.235Z,18.97
2022-09-12T09:00:59.571Z,19.01
2022-09-12T09:01:59.269Z,19.09
2022-09-12T09:02:59.245Z,19.18
2022-09-12T09:04:05.578Z,19.25
2022-09-12T09:04:59.671Z,19.30
2022-09-12T09:06:00.323Z,19.31
2022-09-12T09:07:00.105Z,19.28
2022-09-12T09:08:00.724Z,19.24
2022-09-12T09:09:05.698Z,19.21
2022-09-12T09:09:59.489Z,19.19
2022-09-12T09:11:00.101Z,19.19
2022-09-12T09:12:00.137Z,19.21
2022-09-12T09:12:59.354Z,19.23
2022-09-12T09:14:06.752Z,19.25
2022-09-12T09:15:00.781Z,19.27
2022-09-12T09:16:00.588Z,19.30
2022-09-12T09:16:59.202Z,19.32
2022-09-12T09:17:59.100Z,19.35
2022-09-12T09:18:59.102Z,19.38
2022-09-12T09:20:06.820Z,19.42
2022-09-12T09:20:59.120Z,19.48
2022-09-12T09:21:58.962Z,19.55
2022-09-12T09:23:05.380Z,19.62
2022-09-12T09:24:00.098Z,19.67
2022-09-12T09:24:59.020Z,19.71
2022-09-12T09:26:05.323Z,19.72
2022-09-12T09:26:59.179Z,19.73
2022-09-12T09:27:59.368Z,19.73
2022-09-12T09:28:59.285Z,19.73
2022-09-12T09:29:58.973Z,19.74
2022-09-12T09:31:01.073Z,19.76
2022-09-12T09:32:05.722Z,19.79
2022-09-12T09:32:58.893Z,19.83
2022-09-12T09:33:58.984Z,19.88
2022-09-12T09:34:58.912Z,19.93
2022-09-12T09:35:59.202Z,19.98
2022-09-12T09:36:59.912Z,20.05
2022-09-12T09:38:05.730Z,20.13
2022-09-12T09:38:59.173Z,20.23
2022-09-12T09:40:00.132Z,20.32
2022-09-12T09:41:00.055Z,20.39
2022-09-12T09:42:01.214Z,20.43
2022-09-12T09:43:06.270Z,20.45
2022-09-12T09:43:58.988Z,20.45
2022-09-12T09:44:58.769Z,20.45
2022-09-12T09:45:59.719Z,20.46
2022-09-12T09:46:58.712Z,20.50
2022-09-12T09:47:58.620Z,20.55
2022-09-12T09:49:07.816Z,20.61
2022-09-12T09:49:58.828Z,20.67
2022-09-12T09:50:58.709Z,20.73
2022-09-12T09:52:00.580Z,20.80
2022-09-12T09:52:58.586Z,20.87
2022-09-12T09:53:58.623Z,20.95
2022-09-12T09:55:05.119Z,21.02
2022-09-12T09:55:59.135Z,21.07
2022-09-12T09:56:58.485Z,21.11
2022-09-12T09:57:58.634Z,21.15
2022-09-12T09:58:59.584Z,21.18
2022-09-12T09:59:58.500Z,21.20
2022-09-12T10:01:04.898Z,21.20
2022-09-12T10:01:59.501Z,21.20
2022-09-12T10:02:59.552Z,21.20
2022-09-12T10:03:58.864Z,21.19
2022-09-12T10:04:58.553Z,21.18
2022-09-12T10:05:59.810Z,21.17
2022-09-12T10:07:05.567Z,21.16
2022-09-12T10:07:58.409Z,21.16
2022-09-12T10:08:59.628Z,21.17
2022-09-12T10:09:58.294Z,21.19
2022-09-12T10:10:58.707Z,21.22
2022-09-12T10:11:58.713Z,21.27
2022-09-12T10:13:04.763Z,21.34
2022-09-12T10:13:58.878Z,21.41
2022-09-12T10:14:58.731Z,21.50
2022-09-12T10:15:58.527Z,21.58
2022-09-12T10:16:58.325Z,21.64
2022-09-12T10:17:58.230Z,21.68
2022-09-12T10:19:04.675Z,21.72
2022-09-12T10:20:17.379Z,21.76
2022-09-12T10:20:59.831Z,21.82
2022-09-12T10:21:58.215Z,21.88
2022-09-12T10:22:58.203Z,21.96
2022-09-12T10:23:58.349Z,22.05
2022-09-12T10:25:05.596Z,22.14
2022-09-12T10:25:58.510Z,22.22
2022-09-12T10:26:58.597Z,22.27
2022-09-12T10:27:58.088Z,22.32
2022-09-12T10:28:58.363Z,22.35
2022-09-12T10:29:58.236Z,22.39
2022-09-12T10:31:04.776Z,22.42
2022-09-12T10:31:58.836Z,22.45
2022-09-12T10:32:59.149Z,22.47
2022-09-12T10:33:58.881Z,22.49
2022-09-12T10:34:58.029Z,22.52
2022-09-12T10:36:04.695Z,22.54
2022-09-12T10:36:58.708Z,22.54
2022-09-12T10:37:58.124Z,22.52
2022-09-12T10:38:58.395Z,22.49
2022-09-12T10:39:58.217Z,22.44
2022-09-12T10:40:58.399Z,22.38
2022-09-12T10:42:04.769Z,22.33
2022-09-12T10:42:58.048Z,22.26
2022-09-12T10:43:58.047Z,22.20
2022-09-12T10:44:59.352Z,22.14
2022-09-12T10:45:58.542Z,22.10
2022-09-12T10:47:04.366Z,22.08
2022-09-12T10:47:57.987Z,22.08
2022-09-12T10:48:58.808Z,22.09
2022-09-12T10:49:57.889Z,22.12
2022-09-12T10:50:58.105Z,22.14
2022-09-12T10:51:58.404Z,22.17
2022-09-12T10:53:04.286Z,22.21
2022-09-12T10:53:58.934Z,22.25
2022-09-12T10:54:58.086Z,22.29
2022-09-12T10:55:57.929Z,22.32
2022-09-12T10:56:58.053Z,22.36
2022-09-12T10:57:59.285Z,22.39
2022-09-12T10:59:04.968Z,22.41
2022-09-12T11:00:00.196Z,22.41
2022-09-12T11:00:58.982Z,22.40
2022-09-12T11:01:59.399Z,22.37
2022-09-12T11:02:57.740Z,22.32
2022-09-12T11:04:04.125Z,22.27
2022-09-12T11:04:57.992Z,22.24
2022-09-12T11:05:57.736Z,22.23
2022-09-12T11:06:58.711Z,22.23
2022-09-12T11:07:58.174Z,22.25
2022-09-12T11:09:03.990Z,22.27
2022-09-12T11:09:58.678Z,22.29
2022-09-12T11:10:58.643Z,22.30
2022-09-12T11:11:57.770Z,22.32
2022-09-12T11:12:57.625Z,22.32
2022-09-12T11:13:57.602Z,22.32
2022-09-12T11:15:04.879Z,22.31
2022-09-12T11:15:57.783Z,22.30
2022-09-12T11:16:57.797Z,22.29
2022-09-12T11:17:57.530Z,22.29
2022-09-12T11:18:57.473Z,22.28
2022-09-12T11:19:58.550Z,22.28
2022-09-12T11:21:03.780Z,22.28
2022-09-12T11:21:57.493Z,22.30
2022-09-12T11:22:59.496Z,22.33
2022-09-12T11:23:57.917Z,22.38
2022-09-12T11:24:58.416Z,22.45
2022-09-12T11:26:04.059Z,22.52
2022-09-12T11:26:57.564Z,22.60
2022-09-12T11:27:57.424Z,22.67
2022-09-12T11:28:57.607Z,22.74
2022-09-12T11:29:57.340Z,22.79
2022-09-12T11:31:05.216Z,22.82
2022-09-12T11:31:57.435Z,22.85
2022-09-12T11:32:59.466Z,22.88
2022-09-12T11:33:57.401Z,22.90
2022-09-12T11:34:57.353Z,22.93
2022-09-12T11:35:57.194Z,22.97
2022-09-12T11:37:08.642Z,23.01
2022-09-12T11:37:58.810Z,23.04
2022-09-12T11:38:58.455Z,23.08
2022-09-12T11:39:57.292Z,23.13
2022-09-12T11:40:57.311Z,23.19
2022-09-12T11:41:57.259Z,23.25
2022-09-12T11:43:06.422Z,23.32
2022-09-12T11:43:57.241Z,23.39
2022-09-12T11:44:58.110Z,23.46
2022-09-12T11:45:57.214Z,23.52
2022-09-12T11:46:57.152Z,23.57
2022-09-12T11:47:58.272Z,23.60
2022-09-12T11:49:04.482Z,23.60
2022-09-12T11:49:57.055Z,23.60
2022-09-12T11:50:57.012Z,23.60
2022-09-12T11:51:57.046Z,23.60
2022-09-12T11:52:56.976Z,23.60
2022-09-12T11:54:03.748Z,23.59
2022-09-12T11:54:58.075Z,23.57
2022-09-12T11:55:57.013Z,23.54
2022-09-12T11:56:57.215Z,23.49
2022-09-12T11:57:58.028Z,23.44
2022-09-12T11:59:03.581Z,23.38
2022-09-12T11:59:56.943Z,23.31
2022-09-12T12:00:56.941Z,23.25
2022-09-12T12:01:58.085Z,23.18
2022-09-12T12:02:56.832Z,23.12
2022-09-12T12:04:03.143Z,23.07
2022-09-12T12:04:56.867Z,23.03
2022-09-12T12:05:56.798Z,22.99
2022-09-12T12:06:56.814Z,22.96
2022-09-12T12:07:56.951Z,22.93
2022-09-12T12:08:56.750Z,22.91
2022-09-12T12:10:03.746Z,22.90
2022-09-12T12:10:57.128Z,22.90
2022-09-12T12:11:56.847Z,22.90
2022-09-12T12:12:56.772Z,22.91
2022-09-12T12:13:56.697Z,22.93
2022-09-12T12:14:57.652Z,22.96
2022-09-12T12:16:03.502Z,23.00
2022-09-12T12:16:56.699Z,23.04
2022-09-12T12:17:56.648Z,23.07
2022-09-12T12:18:57.391Z,23.10
2022-09-12T12:19:57.770Z,23.13
2022-09-12T12:20:56.715Z,23.15
2022-09-12T12:22:19.638Z,23.18
2022-09-12T12:22:56.828Z,23.20
2022-09-12T12:23:56.634Z,23.22
2022-09-12T12:24:56.656Z,23.25
2022-09-12T12:25:56.981Z,23.27
2022-09-12T12:26:56.615Z,23.29
2022-09-12T12:28:02.993Z,23.30
2022-09-12T12:28:56.575Z,23.31
2022-09-12T12:29:57.307Z,23.33
2022-09-12T12:30:58.864Z,23.35
2022-09-12T12:31:56.655Z,23.37
2022-09-12T12:33:02.834Z,23.40
2022-09-12T12:33:56.484Z,23.44
2022-09-12T12:34:56.699Z,23.48
2022-09-12T12:35:56.768Z,23.52
2022-09-12T12:36:56.748Z,23.55
2022-09-12T12:38:03.883Z,23.60
2022-09-12T12:38:56.653Z,23.64
2022-09-12T12:39:56.521Z,23.70
2022-09-12T12:40:56.417Z,23.76
2022-09-12T12:42:00.719Z,23.83
2022-09-12T12:43:02.858Z,23.90
2022-09-12T12:43:56.656Z,23.96
2022-09-12T12:44:56.287Z,24.01
2022-09-12T12:45:56.395Z,24.06
2022-09-12T12:46:56.426Z,24.09
2022-09-12T12:47:56.490Z,24.12
2022-09-12T12:49:03.249Z,24.13
2022-09-12T12:49:56.321Z,24.14
2022-09-12T12:50:56.449Z,24.15
2022-09-12T12:51:56.664Z,24.16
2022-09-12T12:52:56.287Z,24.17